KCLT/CLT METAR and TAF weather

Enter ICAO airport designator
Station Type Date Time Source
KCLT METAR 2018/07/21 22:52 UTC NOAA

KCLT 212252Z 24006KT 10SM SCT050 BKN180 BKN210 29/21 A2977 RMK AO2 SLP071 CB DSNT W TCU DSNT S T02940206


Station Type Date Time Source
KCLT Decoded METAR 2018/07/21 22:52 UTC NOAA

CHARLOTTE/DOUGLAS INTERNATIONAL , NC, United States (KCLT) 35-13N 80-57W 220M
Jul 21, 2018 - 06:52 PM EDT / 2018.07.21 2252 UTC
Wind: from the WSW (240 degrees) at 7 MPH (6 KT):0
Visibility: 10 mile(s):0
Sky conditions: mostly cloudy
Weather: Cumulonimbus clouds, towering cumulus clouds observed
Temperature: 84.9 F (29.4 C)
Dew Point: 69.1 F (20.6 C)
Relative Humidity: 59%
Pressure (altimeter): 29.77 in. Hg (1008 hPa)
ob: KCLT 212252Z 24006KT 10SM SCT050 BKN180 BKN210 29/21 A2977 RMK AO2 SLP071 CB DSNT W TCU DSNT S T02940206
cycle: 23

Station Type Date Time Source
KCLT TAF 2018/07/21 22:06 UTC NOAA

TAF
AMD KCLT 212202Z 2122/2224 23008KT P6SM BKN040
TEMPO 2123/2202 VRB15G30KT 2SM +TSRA OVC025CB
FM220200 21003KT 6SM -SHRA BR BKN050
FM220500 24003KT P6SM SCT150
FM221500 21006KT P6SM SCT050 PROB30 2218/2224 4SM -TSRA BKN040CB


Example: see airport list